Livingston Manor, New York
Current Conditions -  °F | °C
As of 10:15 AM on Wednesday 26 Nov 2014 (Local Time) from KMSV Reporting Station
Overcast Overcast  
Wind Chill: 25°   Ceiling: 400
Heat Index: 30°   Visibility: 0.25mi
Dew Point: 30°   Wind: 5mph
Humidity: 100%   Direction: 70°ENE
Pressure: 30.1"   Gusts: NA
Location:  41.9°N, 74.83°W
Report Text: KMSV 261515Z AUTO 07004KT 1/4SM OVC004 M01/M01 A3010 RMK AO1
Loading
Personal Weather Stations






























Interactive Weather Map New forecast layout! Learn more

10-Day Weather Forecast

Advertisements
Track Severe Weather on mobile